Time;durP1;ratioP1;P1;durP2;ratioP2;P2;SDS_P1;SDS_P2;PMS_P1;PMS_P2;Temp;Humidity;BMP_temperature;BMP_pressure;BME280_temperature;BME280_humidity;BME280_pressure;Samples;Min_cycle;Max_cycle;Signal;HPM_P1;HPM_P2
2023/01/25 00:00:37;;;;;;;17.50;10.65;;;;;;;-0.26;100.00;102130.63;5087971;28;20470;-77
2023/01/25 00:03:02;;;;;;;17.23;9.65;;;;;;;0.19;100.00;102243.09;5088787;28;20449;-77
2023/01/25 00:05:28;;;;;;;23.98;12.73;;;;;;;-0.47;100.00;102086.13;5087828;28;20120;-77
2023/01/25 00:07:53;;;;;;;20.23;10.23;;;;;;;-0.42;100.00;102092.53;5081822;28;20048;-77
2023/01/25 00:10:19;;;;;;;21.20;11.77;;;;;;;0.47;100.00;102255.34;5087752;28;20036;-76
2023/01/25 00:12:44;;;;;;;19.92;11.48;;;;;;;-0.78;100.00;102016.94;5089210;28;20036;-79
2023/01/25 00:15:10;;;;;;;20.50;10.98;;;;;;;0.07;100.00;102188.91;5091148;28;20635;-76
2023/01/25 00:17:36;;;;;;;27.48;13.13;;;;;;;-0.19;100.00;102139.69;5089933;28;20052;-78
2023/01/25 00:20:01;;;;;;;22.77;13.23;;;;;;;0.15;100.00;102234.22;5084486;28;20047;-79
2023/01/25 00:22:27;;;;;;;20.25;10.55;;;;;;;0.31;100.00;102271.47;5084631;28;20059;-76
2023/01/25 00:24:52;;;;;;;27.25;12.95;;;;;;;0.04;100.00;102232.53;5088253;28;20051;-76
2023/01/25 00:27:18;;;;;;;27.77;11.82;;;;;;;-0.07;100.00;102230.84;5084150;28;20040;-77
2023/01/25 00:29:43;;;;;;;24.00;12.75;;;;;;;-0.51;100.00;102146.91;5087911;28;20040;-77
2023/01/25 00:32:11;;;;;;;23.75;11.55;;;;;;;0.32;100.00;102286.16;5088126;28;20389;-76
2023/01/25 00:34:41;;;;;;;21.35;13.65;;;;;;;-0.21;100.00;102247.94;5083814;28;20056;-76
2023/01/25 00:37:38;;;;;;;22.70;11.48;;;;;;;0.06;100.00;102286.84;5075815;28;20047;-76
2023/01/25 00:40:04;;;;;;;20.00;11.13;;;;;;;-1.45;100.00;102123.63;5048925;28;20059;-75
2023/01/25 00:42:30;;;;;;;29.75;13.23;;;;;;;-0.97;100.00;102218.25;5086423;28;20318;-75
2023/01/25 00:44:55;;;;;;;25.88;13.90;;;;;;;-0.61;100.00;102291.38;5090255;28;20056;-76
2023/01/25 00:47:21;;;;;;;19.67;10.00;;;;;;;-0.94;100.00;102156.63;5086935;28;20032;-78
2023/01/25 00:49:46;;;;;;;29.65;16.65;;;;;;;-1.15;100.00;102131.84;5081584;28;20135;-75
2023/01/25 00:52:12;;;;;;;27.27;13.45;;;;;;;-0.87;100.00;102155.41;5086638;28;20047;-78
2023/01/25 00:54:38;;;;;;;19.10;11.05;;;;;;;-0.16;100.00;102287.88;5085904;28;20036;-76
2023/01/25 00:57:04;;;;;;;27.25;14.52;;;;;;;-0.67;100.00;102273.78;5083190;28;20694;-75
2023/01/25 00:59:29;;;;;;;18.48;9.57;;;;;;;-0.40;100.00;102286.03;5086152;28;20110;-78
2023/01/25 01:01:55;;;;;;;26.65;13.07;;;;;;;-0.34;100.00;102287.41;5084317;28;20052;-77
2023/01/25 01:04:24;;;;;;;23.85;12.98;;;;;;;-0.73;100.00;102269.84;5082230;28;20416;-76
2023/01/25 01:06:52;;;;;;;19.45;11.38;;;;;;;-0.98;100.00;102252.53;5084222;28;20036;-75
2023/01/25 01:09:18;;;;;;;24.02;12.00;;;;;;;-1.74;100.00;102134.25;5087169;28;20079;-78
2023/01/25 01:11:43;;;;;;;20.00;12.23;;;;;;;-0.94;100.00;102274.25;5087629;28;20119;-75
2023/01/25 01:14:09;;;;;;;29.42;12.45;;;;;;;-0.76;100.00;102262.78;5086175;28;20045;-77
2023/01/25 01:16:35;;;;;;;24.42;12.73;;;;;;;-1.86;100.00;102087.88;5081826;28;20060;-76
2023/01/25 01:19:01;;;;;;;21.88;12.95;;;;;;;-0.95;100.00;102246.72;5083926;28;20069;-77
2023/01/25 01:21:27;;;;;;;19.95;9.93;;;;;;;-0.88;100.00;102274.72;5086910;28;20040;-75
2023/01/25 01:23:56;;;;;;;22.10;12.40;;;;;;;-1.07;100.00;102237.25;5087132;28;20804;-75
2023/01/25 01:26:21;;;;;;;20.20;11.38;;;;;;;-0.96;100.00;102232.00;5086388;28;20048;-77
2023/01/25 01:28:47;;;;;;;22.55;11.73;;;;;;;-1.53;100.00;102098.97;5082550;28;20028;-75
2023/01/25 01:31:20;;;;;;;20.90;12.30;;;;;;;-0.80;100.00;102265.00;5082249;28;20055;-75
2023/01/25 01:33:54;;;;;;;17.10;10.68;;;;;;;-0.70;100.00;102254.63;5085584;28;20189;-76
2023/01/25 01:36:22;;;;;;;23.52;12.52;;;;;;;-0.95;100.00;102232.13;5074865;28;20079;-78
2023/01/25 01:38:48;;;;;;;19.85;11.23;;;;;;;-1.14;100.00;102234.09;5087117;28;20048;-78
2023/01/25 01:41:15;;;;;;;25.80;12.60;;;;;;;-0.80;100.00;102255.59;5086500;28;20128;-76
2023/01/25 01:43:41;;;;;;;18.95;9.77;;;;;;;-1.62;100.00;102101.72;5081720;28;20116;-77
2023/01/25 01:46:20;;;;;;;21.83;10.02;;;;;;;-0.96;100.00;102237.16;5081086;28;20058;-75
2023/01/25 01:49:04;;;;;;;22.73;10.07;;;;;;;-0.93;100.00;102220.28;5086980;28;20120;-78
2023/01/25 01:51:51;;;;;;;22.05;12.23;;;;;;;-0.67;100.00;102253.16;5082744;28;20048;-77
2023/01/25 01:54:41;;;;;;;19.20;9.77;;;;;;;-0.92;100.00;102258.13;5081400;28;20075;-77
2023/01/25 01:57:23;;;;;;;18.95;9.63;;;;;;;-1.68;100.00;102097.81;5079098;28;20059;-76
2023/01/25 01:59:54;;;;;;;22.17;9.63;;;;;;;-0.69;100.00;102261.56;5078036;28;20070;-76
2023/01/25 02:02:23;;;;;;;15.70;7.95;;;;;;;-0.64;100.00;102230.19;5086607;28;20040;-79
2023/01/25 02:04:52;;;;;;;15.82;7.43;;;;;;;-1.40;100.00;102122.28;5083365;28;20040;-76
2023/01/25 02:07:24;;;;;;;15.13;7.72;;;;;;;-0.44;100.00;102280.66;5086940;28;20042;-76
2023/01/25 02:09:50;;;;;;;21.00;8.52;;;;;;;-1.58;100.00;102118.31;5085145;28;20047;-77
2023/01/25 02:12:16;;;;;;;19.95;9.50;;;;;;;-0.85;100.00;102200.22;5084170;28;20528;-77
2023/01/25 02:14:48;;;;;;;19.30;8.65;;;;;;;-0.80;100.00;102259.84;5080070;28;20036;-76
2023/01/25 02:17:14;;;;;;;16.50;8.15;;;;;;;-1.89;100.00;102061.06;5085972;28;20149;-77
2023/01/25 02:19:57;;;;;;;18.92;7.47;;;;;;;-0.58;100.00;102285.59;5085146;28;20464;-76
2023/01/25 02:22:30;;;;;;;16.10;8.43;;;;;;;-0.66;100.00;102257.53;5084299;28;20118;-79
2023/01/25 02:25:13;;;;;;;16.60;8.60;;;;;;;-1.17;100.00;102170.38;5085767;28;20052;-76
2023/01/25 02:27:45;;;;;;;17.70;9.17;;;;;;;-0.31;100.00;102276.41;5074561;28;20445;-75
2023/01/25 02:30:11;;;;;;;19.77;8.80;;;;;;;-0.61;100.00;102280.16;5083059;28;20678;-76
2023/01/25 02:32:37;;;;;;;15.05;6.05;;;;;;;-1.00;100.00;102215.44;5086448;28;20036;-78
2023/01/25 02:35:03;;;;;;;20.70;8.32;;;;;;;-1.10;100.00;102185.53;5085866;28;20505;-76
2023/01/25 02:37:28;;;;;;;17.17;9.57;;;;;;;-0.59;100.00;102255.41;5085195;28;20077;-76
2023/01/25 02:39:54;;;;;;;17.38;9.80;;;;;;;-0.51;100.00;102290.41;5085733;28;20040;-76
2023/01/25 02:42:19;;;;;;;18.00;7.70;;;;;;;-1.02;100.00;102195.50;5074865;28;20489;-76
2023/01/25 02:44:46;;;;;;;17.05;8.25;;;;;;;-0.59;100.00;102294.06;5084922;28;20047;-78
2023/01/25 02:47:11;;;;;;;15.68;7.88;;;;;;;-1.25;100.00;102181.78;5085026;28;20114;-76
2023/01/25 02:49:37;;;;;;;17.05;8.60;;;;;;;-0.46;100.00;102286.50;5086812;28;20024;-77
2023/01/25 02:52:04;;;;;;;15.90;8.02;;;;;;;-0.46;100.00;102289.06;5086995;28;20032;-78
2023/01/25 02:54:29;;;;;;;13.88;5.70;;;;;;;-1.31;100.00;102169.34;5083993;28;20123;-76
2023/01/25 02:56:55;;;;;;;15.57;7.65;;;;;;;-1.30;100.00;102159.94;5074316;28;20611;-76
2023/01/25 02:59:21;;;;;;;17.98;7.63;;;;;;;-0.80;100.00;102234.97;5082087;28;20052;-77
2023/01/25 03:01:48;;;;;;;11.27;5.55;;;;;;;-0.65;100.00;102271.31;5082782;28;20478;-79
2023/01/25 03:04:13;;;;;;;14.57;6.93;;;;;;;-0.56;100.00;102290.06;5086641;28;20040;-77
2023/01/25 03:06:39;;;;;;;10.50;5.85;;;;;;;-0.61;100.00;102280.16;5086080;28;20454;-76
2023/01/25 03:09:07;;;;;;;11.38;5.57;;;;;;;-0.62;100.00;102263.81;5083257;28;20051;-78
2023/01/25 03:11:33;;;;;;;14.57;7.07;;;;;;;-0.37;100.00;102258.81;5084504;28;20139;-79
2023/01/25 03:13:58;;;;;;;12.80;7.57;;;;;;;-1.36;100.00;102160.38;5085220;28;20135;-78
2023/01/25 03:16:24;;;;;;;11.35;5.05;;;;;;;-0.30;100.00;102294.59;5082512;28;20054;-78
2023/01/25 03:18:53;;;;;;;15.77;7.28;;;;;;;-0.57;100.00;102262.47;5085980;28;20036;-78
2023/01/25 03:21:19;;;;;;;10.48;6.25;;;;;;;-1.20;100.00;102169.25;5085704;28;20121;-77
2023/01/25 03:23:46;;;;;;;11.63;5.78;;;;;;;-0.42;100.00;102293.69;5077580;28;20055;-78
2023/01/25 03:26:17;;;;;;;11.82;6.82;;;;;;;-0.46;100.00;102309.69;5078321;28;20059;-78
2023/01/25 03:28:43;;;;;;;14.00;6.18;;;;;;;-1.26;100.00;102156.81;5085857;28;20036;-80
2023/01/25 03:31:10;;;;;;;13.13;7.00;;;;;;;-0.86;100.00;102183.88;5085290;28;20089;-78
2023/01/25 03:33:36;;;;;;;19.83;6.43;;;;;;;-1.18;100.00;102167.69;5086882;28;20056;-77
2023/01/25 03:36:03;;;;;;;14.02;6.47;;;;;;;-1.06;100.00;102156.59;5084288;28;20400;-76
2023/01/25 03:38:29;;;;;;;15.25;6.15;;;;;;;-1.05;100.00;102196.16;5080675;28;20040;-78
2023/01/25 03:40:55;;;;;;;14.15;7.55;;;;;;;-1.14;100.00;102137.13;5082163;28;20094;-77
2023/01/25 03:43:21;;;;;;;11.93;6.15;;;;;;;-0.44;100.00;102298.72;5088840;28;20535;-79
2023/01/25 03:45:52;;;;;;;12.05;6.55;;;;;;;-0.14;100.00;102313.75;5087922;28;20051;-79
2023/01/25 03:48:19;;;;;;;18.90;5.35;;;;;;;-0.25;100.00;102277.75;5081594;28;20040;-77
2023/01/25 03:50:49;;;;;;;9.45;5.20;;;;;;;-0.43;100.00;102308.22;5086967;28;20044;-78
2023/01/25 03:53:27;;;;;;;9.32;5.07;;;;;;;-0.96;100.00;102194.28;5103265;28;20381;-77
2023/01/25 03:56:00;;;;;;;9.00;4.50;;;;;;;-0.41;100.00;102287.72;5083017;28;20123;-77
2023/01/25 03:58:26;;;;;;;11.00;5.10;;;;;;;-0.48;100.00;102298.38;5086120;28;20070;-77
2023/01/25 04:00:54;;;;;;;13.43;7.28;;;;;;;-1.20;100.00;102164.09;5087424;28;20523;-78
2023/01/25 04:03:20;;;;;;;14.98;7.22;;;;;;;-0.46;100.00;102313.16;5087799;28;20400;-76
2023/01/25 04:05:46;;;;;;;10.68;6.22;;;;;;;-0.02;100.00;102301.78;5083338;28;20055;-77
2023/01/25 04:08:12;;;;;;;16.17;6.22;;;;;;;-1.18;100.00;102142.81;5083832;28;20060;-78
2023/01/25 04:10:37;;;;;;;10.15;4.30;;;;;;;-0.63;100.00;102202.75;5088744;28;20434;-78
2023/01/25 04:13:03;;;;;;;14.15;6.90;;;;;;;-0.61;100.00;102228.63;5089682;28;20031;-76
2023/01/25 04:15:28;;;;;;;10.77;4.70;;;;;;;-1.10;100.00;102172.63;5087240;28;20518;-77
2023/01/25 04:17:55;;;;;;;11.65;6.80;;;;;;;-0.25;100.00;102248.50;5088548;28;20828;-77
2023/01/25 04:20:20;;;;;;;12.10;7.28;;;;;;;0.18;100.00;102304.09;5088225;28;20048;-75
2023/01/25 04:22:46;;;;;;;12.30;6.95;;;;;;;-0.22;100.00;102267.66;5084887;28;20020;-76
2023/01/25 04:25:11;;;;;;;13.07;6.07;;;;;;;-0.23;100.00;102288.19;5088748;28;20047;-77
2023/01/25 04:27:37;;;;;;;20.63;6.93;;;;;;;0.05;100.00;102295.34;5081970;28;20916;-78
2023/01/25 04:30:04;;;;;;;11.77;6.65;;;;;;;-0.12;100.00;102319.94;5090443;28;20536;-78
2023/01/25 04:32:29;;;;;;;12.18;6.28;;;;;;;-1.08;100.00;102178.81;5085722;28;20068;-77
2023/01/25 04:34:55;;;;;;;10.52;5.03;;;;;;;-1.02;100.00;102200.66;5081441;28;21108;-75
2023/01/25 04:37:20;;;;;;;11.50;4.82;;;;;;;-0.34;100.00;102323.50;5085393;28;20028;-75
2023/01/25 04:39:45;;;;;;;10.13;5.97;;;;;;;-1.08;100.00;102181.38;5087717;28;20036;-78
2023/01/25 04:42:11;;;;;;;10.20;4.50;;;;;;;-0.56;100.00;102281.41;5087878;28;20388;-76
2023/01/25 04:44:36;;;;;;;9.88;6.35;;;;;;;-0.33;100.00;102291.78;5086664;28;20052;-76
2023/01/25 04:47:02;;;;;;;12.20;6.53;;;;;;;-1.03;100.00;102174.00;5085193;28;20048;-77
2023/01/25 04:49:28;;;;;;;14.27;4.63;;;;;;;-0.28;100.00;102276.63;5083184;28;20032;-78
2023/01/25 04:51:53;;;;;;;17.35;7.35;;;;;;;-1.16;100.00;102168.69;5086908;28;20141;-76
2023/01/25 04:54:19;;;;;;;11.75;6.68;;;;;;;-1.00;100.00;102129.53;5086639;28;20032;-77
2023/01/25 04:56:44;;;;;;;12.52;6.10;;;;;;;-0.75;100.00;102176.97;5084743;28;20044;-78
2023/01/25 04:59:10;;;;;;;7.50;3.78;;;;;;;-0.67;100.00;102255.72;5088371;28;20511;-77
2023/01/25 05:01:35;;;;;;;10.45;5.60;;;;;;;-0.95;100.00;102157.44;5085998;28;20747;-78
2023/01/25 05:04:01;;;;;;;17.70;5.72;;;;;;;-1.04;100.00;102176.44;5086153;28;20509;-78
2023/01/25 05:06:26;;;;;;;11.88;6.43;;;;;;;-0.31;100.00;102317.66;5086722;28;20036;-77
2023/01/25 05:08:51;;;;;;;13.77;7.13;;;;;;;-0.78;100.00;102243.72;5087230;28;20040;-76
2023/01/25 05:11:17;;;;;;;12.20;6.63;;;;;;;0.03;100.00;102310.75;5087327;28;20043;-76
2023/01/25 05:13:42;;;;;;;11.10;5.07;;;;;;;0.14;100.00;102307.28;5087487;28;20031;-76
2023/01/25 05:16:08;;;;;;;13.35;6.28;;;;;;;-1.00;100.00;102161.34;5080151;28;20670;-76
2023/01/25 05:18:33;;;;;;;14.57;5.60;;;;;;;-1.08;100.00;102177.88;5087571;28;20032;-78
2023/01/25 05:20:59;;;;;;;15.05;6.47;;;;;;;-0.88;100.00;102242.13;5087289;28;20048;-77
2023/01/25 05:23:24;;;;;;;17.42;7.38;;;;;;;-1.38;100.00;102164.50;5087694;28;20044;-76
2023/01/25 05:28:33;;;;;;;14.13;6.20;;;;;;;-1.15;100.00;102180.78;5082333;28;20098;-78
2023/01/25 05:31:02;;;;;;;12.20;6.90;;;;;;;-1.21;100.00;102188.06;5078170;28;20062;-78
2023/01/25 05:33:28;;;;;;;14.18;6.90;;;;;;;-0.17;100.00;102321.28;5086860;28;20067;-76
2023/01/25 05:35:55;;;;;;;24.60;8.57;;;;;;;-0.19;100.00;102317.69;5081285;28;20067;-78
2023/01/25 05:38:20;;;;;;;18.00;8.57;;;;;;;-0.35;100.00;102298.50;5077262;28;20047;-75
2023/01/25 05:40:46;;;;;;;18.38;8.18;;;;;;;-0.01;100.00;102317.34;5086135;28;20062;-76
2023/01/25 05:43:11;;;;;;;21.13;11.77;;;;;;;-0.93;100.00;102193.63;5081688;28;20036;-78
2023/01/25 05:45:37;;;;;;;16.65;8.25;;;;;;;-0.53;100.00;102243.00;5083351;28;20105;-78
2023/01/25 05:48:02;;;;;;;19.27;10.60;;;;;;;-0.87;100.00;102179.53;5080194;28;20479;-77
2023/01/25 05:50:28;;;;;;;17.20;7.60;;;;;;;-1.08;100.00;102178.81;5085853;28;20093;-75
2023/01/25 05:52:53;;;;;;;13.48;7.03;;;;;;;-1.06;100.00;102190.09;5085772;28;20044;-76
2023/01/25 05:55:19;;;;;;;24.10;9.63;;;;;;;-0.78;100.00;102183.56;5086512;28;20035;-79
2023/01/25 05:57:44;;;;;;;15.85;7.82;;;;;;;-0.92;100.00;102190.25;5076701;28;20534;-79
2023/01/25 06:00:10;;;;;;;15.30;8.90;;;;;;;-0.25;100.00;102320.72;5084700;28;20057;-76
2023/01/25 06:02:36;;;;;;;12.68;8.40;;;;;;;-0.40;100.00;102271.47;5076906;28;20056;-77
2023/01/25 06:05:02;;;;;;;20.73;9.75;;;;;;;-0.23;100.00;102312.31;5085715;28;20040;-79
2023/01/25 06:07:28;;;;;;;13.25;7.75;;;;;;;-0.06;100.00;102308.38;5079985;28;20050;-76
2023/01/25 06:09:54;;;;;;;15.55;9.25;;;;;;;0.25;100.00;102320.06;5085849;28;20483;-77
2023/01/25 06:12:20;;;;;;;17.95;10.32;;;;;;;0.33;100.00;102325.00;5075908;28;20044;-75
2023/01/25 06:14:46;;;;;;;17.77;9.10;;;;;;;-0.27;100.00;102232.91;5083726;28;20048;-76
2023/01/25 06:17:12;;;;;;;18.33;9.23;;;;;;;0.20;100.00;102297.38;5082883;28;20071;-77
2023/01/25 06:19:38;;;;;;;19.33;8.73;;;;;;;0.45;100.00;102337.00;5086134;28;20753;-77
2023/01/25 06:22:03;;;;;;;18.08;10.55;;;;;;;0.48;100.00;102334.63;5088796;28;20071;-77
2023/01/25 06:24:29;;;;;;;19.73;7.65;;;;;;;-0.42;100.00;102175.06;5085672;28;20032;-78
2023/01/25 06:26:54;;;;;;;20.60;11.13;;;;;;;0.16;100.00;102318.63;5082836;28;20048;-77
2023/01/25 06:29:20;;;;;;;18.80;8.27;;;;;;;-0.61;100.00;102267.28;5085842;28;20499;-76
2023/01/25 06:31:45;;;;;;;17.00;8.75;;;;;;;0.23;100.00;102344.84;5076361;28;20341;-77
2023/01/25 06:34:11;;;;;;;20.20;8.80;;;;;;;0.24;100.00;102311.41;5085043;28;20707;-77
2023/01/25 06:36:38;;;;;;;19.73;11.07;;;;;;;-1.06;100.00;102199.50;5076354;28;20044;-82
2023/01/25 06:39:04;;;;;;;42.80;9.85;;;;;;;-1.28;100.00;102176.41;5074180;28;20049;-77
2023/01/25 06:41:29;;;;;;;16.33;9.98;;;;;;;-0.81;100.00;102237.44;5076082;28;20052;-79
2023/01/25 06:43:55;;;;;;;17.98;10.27;;;;;;;-0.39;100.00;102327.44;5085699;28;20461;-78
2023/01/25 06:46:20;;;;;;;20.05;9.93;;;;;;;-0.46;100.00;102304.53;5084300;28;20032;-77
2023/01/25 06:48:46;;;;;;;17.60;8.82;;;;;;;-0.99;100.00;102176.00;5082748;28;21185;-77
2023/01/25 06:51:13;;;;;;;21.20;10.73;;;;;;;-0.21;100.00;102325.34;5070432;28;20048;-77
2023/01/25 06:53:40;;;;;;;16.02;10.05;;;;;;;0.05;100.00;102279.88;5077604;28;20032;-77
2023/01/25 06:56:09;;;;;;;24.17;13.95;;;;;;;0.27;100.00;102278.06;5081964;28;20056;-76
2023/01/25 06:58:35;;;;;;;25.75;11.85;;;;;;;-0.19;100.00;102187.00;5082950;28;20648;-78
2023/01/25 07:01:04;;;;;;;23.52;12.30;;;;;;;0.60;100.00;102312.25;5085110;28;20115;-77
2023/01/25 07:03:31;;;;;;;22.17;12.32;;;;;;;0.76;100.00;102337.50;5084659;28;20051;-78
2023/01/25 07:06:00;;;;;;;42.33;16.02;;;;;;;-0.46;100.00;102191.09;5084845;28;20051;-79
2023/01/25 07:08:27;;;;;;;28.23;12.88;;;;;;;-0.96;100.00;102195.94;5079234;28;20864;-77
2023/01/25 07:10:54;;;;;;;25.77;12.23;;;;;;;-0.01;100.00;102319.94;5087987;28;20123;-80
2023/01/25 07:13:20;;;;;;;26.88;12.70;;;;;;;0.05;100.00;102282.47;5086844;28;20809;-78
2023/01/25 07:15:51;;;;;;;26.10;11.00;;;;;;;-0.14;100.00;102215.72;5087069;28;20048;-78
2023/01/25 07:18:17;;;;;;;26.70;10.40;;;;;;;0.48;100.00;102343.25;5089329;28;20044;-77
2023/01/25 07:20:42;;;;;;;18.77;11.65;;;;;;;-0.11;100.00;102219.44;5087520;28;20481;-79
2023/01/25 07:23:08;;;;;;;19.48;10.45;;;;;;;0.13;100.00;102274.50;5081998;28;20051;-77
2023/01/25 07:25:33;;;;;;;20.95;10.02;;;;;;;0.69;100.00;102346.50;5088233;28;20455;-77
2023/01/25 07:27:59;;;;;;;20.33;9.68;;;;;;;0.61;100.00;102347.66;5083940;28;20479;-77
2023/01/25 07:30:24;;;;;;;26.90;12.63;;;;;;;0.64;100.00;102327.19;5088812;28;20060;-76
2023/01/25 07:32:50;;;;;;;18.83;9.13;;;;;;;0.11;100.00;102205.50;5086602;28;20151;-77
2023/01/25 07:35:15;;;;;;;28.60;10.70;;;;;;;0.12;100.00;102228.84;5088600;28;20040;-77
2023/01/25 07:37:40;;;;;;;43.22;11.27;;;;;;;-0.36;100.00;102115.28;5084697;28;20020;-77
2023/01/25 07:40:07;;;;;;;20.23;9.30;;;;;;;1.01;100.00;102353.03;5088316;28;20086;-78
2023/01/25 07:42:32;;;;;;;23.98;10.02;;;;;;;0.99;100.00;102360.69;5087799;28;20055;-76
2023/01/25 07:44:58;;;;;;;20.58;9.63;;;;;;;0.78;100.00;102325.59;5083975;28;20102;-78
2023/01/25 07:47:23;;;;;;;22.65;9.30;;;;;;;1.00;100.00;102370.22;5088948;28;20054;-77
2023/01/25 07:49:49;;;;;;;19.23;9.63;;;;;;;0.53;100.00;102341.91;5087716;28;20016;-76
2023/01/25 07:52:14;;;;;;;17.30;10.23;;;;;;;0.21;100.00;102311.19;5089261;28;20028;-76
2023/01/25 07:54:40;;;;;;;20.55;8.65;;;;;;;0.87;100.00;102357.25;5085671;28;20638;-78
2023/01/25 07:57:05;;;;;;;20.75;10.98;;;;;;;0.30;100.00;102242.13;5076015;28;20056;-78
2023/01/25 07:59:31;;;;;;;16.13;11.10;;;;;;;0.20;100.00;102229.38;5081218;28;20539;-79
2023/01/25 08:01:56;;;;;;;23.92;11.82;;;;;;;0.16;100.00;102352.19;5085586;28;20593;-77
2023/01/25 08:04:22;;;;;;;24.73;8.70;;;;;;;0.59;100.00;102357.84;5084509;28;20056;-77
2023/01/25 08:06:47;;;;;;;15.98;8.23;;;;;;;-0.10;100.00;102225.50;5086402;28;20040;-77
2023/01/25 08:09:18;;;;;;;18.17;9.23;;;;;;;0.76;100.00;102335.78;5085659;28;20495;-77
2023/01/25 08:11:44;;;;;;;16.45;9.25;;;;;;;0.25;100.00;102222.84;5088724;28;20028;-77
2023/01/25 08:14:10;;;;;;;26.33;9.95;;;;;;;0.50;100.00;102266.81;5096891;28;20081;-77
2023/01/25 08:16:35;;;;;;;21.50;9.55;;;;;;;1.05;100.00;102348.19;5086490;28;20041;-78
2023/01/25 08:19:02;;;;;;;18.13;11.52;;;;;;;0.16;100.00;102206.72;5080371;28;20063;-78
2023/01/25 08:21:31;;;;;;;29.35;12.55;;;;;;;0.88;100.00;102333.19;5087406;28;20055;-77
2023/01/25 08:23:58;;;;;;;19.10;8.63;;;;;;;0.76;100.00;102296.16;5087920;28;20067;-79
2023/01/25 08:26:24;;;;;;;16.45;11.00;;;;;;;0.90;100.00;102367.78;5084720;28;20055;-79
2023/01/25 08:28:52;;;;;;;19.33;9.93;;;;;;;0.90;100.00;102357.44;5085518;28;20032;-77
2023/01/25 08:31:21;;;;;;;23.80;12.52;;;;;;;-0.02;100.00;102220.09;5083131;28;20042;-77
2023/01/25 08:33:48;;;;;;;22.33;11.93;;;;;;;0.76;100.00;102327.16;5078469;28;20509;-76
2023/01/25 08:36:15;;;;;;;23.10;10.70;;;;;;;0.90;100.00;102361.72;5084728;28;20440;-78
2023/01/25 08:38:41;;;;;;;25.35;9.65;;;;;;;1.12;100.00;102362.41;5082619;28;20062;-78
2023/01/25 08:41:09;;;;;;;18.60;11.20;;;;;;;1.19;100.00;102359.47;5087553;28;20567;-75
2023/01/25 08:43:34;;;;;;;23.17;12.90;;;;;;;1.00;100.00;102322.78;5087718;28;20068;-78
2023/01/25 08:46:00;;;;;;;19.20;12.45;;;;;;;1.10;100.00;102340.75;5086485;28;20070;-78
2023/01/25 08:48:25;;;;;;;27.55;12.40;;;;;;;1.13;100.00;102338.38;5085048;28;20063;-78
2023/01/25 08:50:51;;;;;;;19.40;11.27;;;;;;;1.21;100.00;102332.03;5085336;28;20032;-76
2023/01/25 08:53:17;;;;;;;21.23;10.57;;;;;;;0.93;100.00;102318.00;5083664;28;20043;-77
2023/01/25 08:55:43;;;;;;;18.50;9.57;;;;;;;1.27;100.00;102370.38;5081696;28;20111;-77
2023/01/25 08:58:18;;;;;;;18.85;9.63;;;;;;;1.12;100.00;102366.69;5083947;28;20076;-76
2023/01/25 09:00:44;;;;;;;23.52;12.90;;;;;;;1.01;100.00;102334.94;5071877;28;20047;-77
2023/01/25 09:03:10;;;;;;;20.38;10.93;;;;;;;1.19;100.00;102358.56;5084874;28;20044;-78
2023/01/25 09:05:37;;;;;;;21.00;12.43;;;;;;;1.11;100.00;102339.97;5078125;28;20518;-77
2023/01/25 09:08:05;;;;;;;19.83;9.95;;;;;;;0.54;100.00;102248.16;5085870;28;20079;-77
2023/01/25 09:10:31;;;;;;;18.77;10.68;;;;;;;1.11;100.00;102346.81;5089358;28;20032;-79
2023/01/25 09:12:56;;;;;;;30.33;11.02;;;;;;;1.43;100.00;102369.75;5086818;28;20039;-78
2023/01/25 09:15:22;;;;;;;20.80;9.68;;;;;;;1.35;100.00;102356.25;5078628;28;20052;-78
2023/01/25 09:17:54;;;;;;;25.80;11.77;;;;;;;1.36;100.00;102359.72;5084869;28;20520;-79
2023/01/25 09:20:20;;;;;;;16.65;11.43;;;;;;;1.10;100.00;102312.31;5083027;28;20048;-78
2023/01/25 09:22:46;;;;;;;15.75;9.48;;;;;;;0.63;100.00;102227.22;5081963;28;20413;-78
2023/01/25 09:25:12;;;;;;;19.02;9.82;;;;;;;0.40;100.00;102225.63;5084538;28;20040;-77
2023/01/25 09:27:38;;;;;;;19.90;10.40;;;;;;;0.06;100.00;102268.78;5084812;28;20672;-77
2023/01/25 09:30:05;;;;;;;17.70;7.85;;;;;;;1.10;100.00;102342.41;5081338;28;20044;-79
2023/01/25 09:32:30;;;;;;;18.20;10.98;;;;;;;0.59;100.00;102208.03;5085318;28;20079;-77
2023/01/25 09:34:56;;;;;;;16.88;8.18;;;;;;;0.86;100.00;102223.63;5086563;28;20079;-77
2023/01/25 09:37:21;;;;;;;24.35;12.05;;;;;;;0.21;100.00;102228.56;5084600;28;20027;-79
2023/01/25 09:39:47;;;;;;;20.70;11.57;;;;;;;1.15;100.00;102333.31;5086072;28;20039;-76
2023/01/25 09:42:22;;;;;;;20.45;10.75;;;;;;;1.26;100.00;102297.06;5084450;28;20158;-77
2023/01/25 09:44:56;;;;;;;19.50;10.25;;;;;;;0.47;100.00;102319.91;5082579;28;20034;-77
2023/01/25 09:48:06;;;;;;;18.88;9.85;;;;;;;1.04;100.00;102320.53;5077172;28;20630;-77
2023/01/25 09:51:21;;;;;;;21.30;10.98;;;;;;;0.28;100.00;102266.06;5053501;28;20052;-77
2023/01/25 09:53:55;;;;;;;25.48;9.45;;;;;;;-0.10;100.00;102169.63;5063538;28;20048;-79
2023/01/25 09:56:31;;;;;;;22.80;9.00;;;;;;;0.78;100.00;102276.50;5080562;28;20036;-78
2023/01/25 09:59:25;;;;;;;39.05;11.35;;;;;;;0.80;100.00;102207.75;5075538;28;20048;-76
2023/01/25 10:02:04;;;;;;;26.90;12.02;;;;;;;0.73;100.00;102304.59;5077588;28;20051;-77
2023/01/25 10:04:43;;;;;;;21.60;9.23;;;;;;;0.51;100.00;102206.59;5085214;28;20093;-76
2023/01/25 10:07:33;;;;;;;25.77;9.55;;;;;;;0.55;100.00;102261.97;5086531;28;20131;-76
2023/01/25 10:10:17;;;;;;;24.48;10.52;;;;;;;1.12;100.00;102304.66;5085334;28;20044;-77
2023/01/25 10:12:42;;;;;;;28.77;10.13;;;;;;;0.57;100.00;102190.66;5083893;28;20047;-78
2023/01/25 10:15:23;;;;;;;17.65;9.10;;;;;;;0.81;100.00;102175.94;5084008;28;20092;-76
2023/01/25 10:18:04;;;;;;;19.77;9.55;;;;;;;0.83;100.00;102276.00;5077108;28;20048;-77
2023/01/25 10:20:48;;;;;;;19.52;9.93;;;;;;;0.73;100.00;102177.09;5066342;28;20753;-77
2023/01/25 10:23:32;;;;;;;;;;;;;;;1.19;100.00;102293.94;5087407;28;20040;-78
2023/01/25 10:25:59;;;;;;;18.85;8.95;;;;;;;0.78;100.00;102173.16;5079376;28;19917;-78
2023/01/25 10:28:40;;;;;;;15.00;10.52;;;;;;;1.38;100.00;102280.56;5086687;28;20032;-77
2023/01/25 10:31:25;;;;;;;17.30;9.50;;;;;;;1.41;100.00;102279.09;5080271;28;20075;-79
2023/01/25 10:33:54;;;;;;;15.98;10.15;;;;;;;0.66;100.00;102273.06;5078911;28;20109;-77
2023/01/25 10:36:28;;;;;;;14.52;8.48;;;;;;;0.43;100.00;102245.59;5072912;28;20059;-79
2023/01/25 10:38:58;;;;;;;21.67;10.23;;;;;;;0.51;100.00;102231.53;5084312;28;20116;-78
2023/01/25 10:41:32;;;;;;;23.55;12.50;;;;;;;0.39;100.00;102156.69;5084560;28;20511;-77
2023/01/25 10:46:49;;;;;;;20.13;8.98;;;;;;;0.60;100.00;102184.00;5089759;28;20323;-77
2023/01/25 10:49:24;;;;;;;22.65;13.20;;;;;;;0.25;100.00;102114.44;5091094;28;20138;-78
2023/01/25 10:51:50;;;;;;;18.30;10.57;;;;;;;-0.17;100.00;102112.31;5083417;28;20044;-77
2023/01/25 10:54:15;;;;;;;21.15;11.85;;;;;;;0.58;100.00;102220.84;5077841;28;20051;-78
2023/01/25 10:56:44;;;;;;;15.65;9.52;;;;;;;0.53;100.00;102228.25;5079889;28;20131;-76
2023/01/25 10:59:24;;;;;;;19.77;10.65;;;;;;;0.47;100.00;102183.97;5089581;28;20059;-76
2023/01/25 11:01:50;;;;;;;18.65;8.68;;;;;;;-0.20;100.00;102089.78;5090923;28;20043;-79
2023/01/25 11:04:30;;;;;;;16.80;9.07;;;;;;;0.44;100.00;102227.63;5093313;28;20064;-78
2023/01/25 11:06:56;;;;;;;23.95;10.13;;;;;;;0.46;100.00;102187.31;5081530;28;20044;-78
2023/01/25 11:09:21;;;;;;;15.85;7.95;;;;;;;0.57;100.00;102222.53;5089551;28;20048;-78
2023/01/25 11:12:01;;;;;;;19.85;9.52;;;;;;;0.60;100.00;102190.84;5084784;28;20108;-77
2023/01/25 11:14:31;;;;;;;19.25;10.63;;;;;;;0.84;100.00;102207.13;5087995;28;20086;-77
2023/01/25 11:16:59;;;;;;;20.48;10.93;;;;;;;-0.08;100.00;102100.97;5084649;28;21251;-77
2023/01/25 11:19:27;;;;;;;19.90;10.75;;;;;;;0.63;100.00;102191.97;5087858;28;20032;-77